createdAt,value
2022-08-17T00:00:34.588Z,26.22
2022-08-17T00:03:06.175Z,26.27
2022-08-17T00:05:44.388Z,26.26
2022-08-17T00:08:14.795Z,26.17
2022-08-17T00:10:44.444Z,26.03
2022-08-17T00:13:17.306Z,25.99
2022-08-17T00:15:46.679Z,26.17
2022-08-17T00:19:02.047Z,26.11
2022-08-17T00:21:10.569Z,26.02
2022-08-17T00:23:44.351Z,26.12
2022-08-17T00:26:43.489Z,26.15
2022-08-17T00:29:07.634Z,26.13
2022-08-17T00:31:36.290Z,26.06
2022-08-17T00:34:06.451Z,25.99
2022-08-17T00:36:33.973Z,25.94
2022-08-17T00:39:01.641Z,26.05
2022-08-17T00:41:29.541Z,25.88
2022-08-17T00:44:05.158Z,25.91
2022-08-17T00:46:41.028Z,26.02
2022-08-17T00:49:11.569Z,26.16
2022-08-17T00:51:53.026Z,26.10
2022-08-17T00:54:42.057Z,26.04
2022-08-17T00:57:17.469Z,26.04
2022-08-17T01:00:02.032Z,25.95
2022-08-17T01:02:41.676Z,25.83
2022-08-17T01:05:18.590Z,25.88
2022-08-17T01:07:50.921Z,25.96
2022-08-17T01:10:59.577Z,25.96
2022-08-17T01:13:15.084Z,25.72
2022-08-17T01:15:53.154Z,25.76
2022-08-17T01:18:21.426Z,25.93
2022-08-17T01:20:51.863Z,25.99
2022-08-17T01:23:22.561Z,26.05
2022-08-17T01:25:54.695Z,26.06
2022-08-17T01:28:33.418Z,25.91
2022-08-17T01:31:14.138Z,25.89
2022-08-17T01:33:42.366Z,25.74
2022-08-17T01:36:10.660Z,25.82
2022-08-17T01:38:39.623Z,25.84
2022-08-17T01:41:12.520Z,25.87
2022-08-17T01:44:02.685Z,25.79
2022-08-17T01:46:34.812Z,25.60
2022-08-17T01:49:08.660Z,25.62
2022-08-17T01:51:37.063Z,25.73
2022-08-17T01:54:10.206Z,25.66
2022-08-17T01:56:41.897Z,25.46
2022-08-17T01:59:11.371Z,25.35
2022-08-17T02:01:39.563Z,25.52
2022-08-17T02:04:08.507Z,25.34
2022-08-17T02:06:44.928Z,25.13
2022-08-17T02:09:25.333Z,25.24
2022-08-17T02:11:59.940Z,25.06
2022-08-17T02:14:47.461Z,25.13
2022-08-17T02:17:15.506Z,25.18
2022-08-17T02:19:43.664Z,25.12
2022-08-17T02:22:11.983Z,25.14
2022-08-17T02:25:00.159Z,25.11
2022-08-17T02:27:28.721Z,25.24
2022-08-17T02:29:57.681Z,25.28
2022-08-17T02:32:28.385Z,25.30
2022-08-17T02:34:58.022Z,25.34
2022-08-17T02:37:27.931Z,25.32
2022-08-17T02:39:59.602Z,25.31
2022-08-17T02:42:41.521Z,25.34
2022-08-17T02:45:18.681Z,25.08
2022-08-17T02:47:47.460Z,25.13
2022-08-17T02:50:18.216Z,25.12
2022-08-17T02:52:47.468Z,25.08
2022-08-17T02:55:29.401Z,24.96
2022-08-17T02:57:57.523Z,24.98
2022-08-17T03:00:29.606Z,24.76
2022-08-17T03:02:57.867Z,24.76
2022-08-17T03:05:29.055Z,24.84
2022-08-17T03:07:57.677Z,24.92
2022-08-17T03:10:26.081Z,24.96
2022-08-17T03:12:54.544Z,25.02
2022-08-17T03:15:30.534Z,25.00
2022-08-17T03:17:59.659Z,25.00
2022-08-17T03:20:29.692Z,25.03
2022-08-17T03:23:01.829Z,24.99
2022-08-17T03:25:34.826Z,24.88
2022-08-17T03:28:03.788Z,24.90
2022-08-17T03:30:32.144Z,24.89
2022-08-17T03:33:03.001Z,24.78
2022-08-17T03:35:32.712Z,24.68
2022-08-17T03:38:01.406Z,24.76
2022-08-17T03:40:55.559Z,24.73
2022-08-17T03:43:19.879Z,24.67
2022-08-17T03:46:06.248Z,24.50
2022-08-17T03:49:11.340Z,24.31
2022-08-17T03:52:00.031Z,24.25
2022-08-17T03:54:48.626Z,24.34
2022-08-17T03:57:16.716Z,24.28
2022-08-17T03:59:45.066Z,24.32
2022-08-17T04:02:22.385Z,24.16
2022-08-17T04:04:52.490Z,24.13
2022-08-17T04:07:21.760Z,24.10
2022-08-17T04:09:49.881Z,24.21
2022-08-17T04:12:19.983Z,24.19
2022-08-17T04:14:51.911Z,24.31
2022-08-17T04:17:28.676Z,24.26
2022-08-17T04:19:57.148Z,24.28
2022-08-17T04:22:30.531Z,24.33
2022-08-17T04:25:13.802Z,24.41
2022-08-17T04:27:42.411Z,24.42
2022-08-17T04:30:10.649Z,24.48
2022-08-17T04:33:06.370Z,24.49
2022-08-17T04:35:48.383Z,24.50
2022-08-17T04:38:20.263Z,24.53
2022-08-17T04:41:07.220Z,24.49
2022-08-17T04:43:36.985Z,24.43
2022-08-17T04:46:08.801Z,24.50
2022-08-17T04:48:40.474Z,24.49
2022-08-17T04:51:12.415Z,24.38
2022-08-17T04:53:42.840Z,24.41
2022-08-17T04:56:16.015Z,24.40
2022-08-17T04:58:47.857Z,24.52
2022-08-17T05:01:16.696Z,24.40
2022-08-17T05:03:56.327Z,24.50
2022-08-17T05:06:24.528Z,24.56
2022-08-17T05:08:52.843Z,24.57
2022-08-17T05:11:21.173Z,24.60
2022-08-17T05:13:52.682Z,24.60
2022-08-17T05:16:22.391Z,24.60
2022-08-17T05:18:50.155Z,24.61
2022-08-17T05:21:18.528Z,24.71
2022-08-17T05:23:47.181Z,24.70
2022-08-17T05:26:26.664Z,24.73
2022-08-17T05:28:59.602Z,24.76
2022-08-17T05:31:29.429Z,24.75
2022-08-17T05:33:58.080Z,24.79
2022-08-17T05:36:43.123Z,24.96
2022-08-17T05:39:15.672Z,25.05
2022-08-17T05:41:48.738Z,25.00
2022-08-17T05:44:16.656Z,25.02
2022-08-17T05:46:51.444Z,25.09
2022-08-17T05:49:27.323Z,25.15
2022-08-17T05:52:04.462Z,25.41
2022-08-17T05:54:58.997Z,25.43
2022-08-17T05:57:39.492Z,25.41
2022-08-17T06:00:33.094Z,25.53
2022-08-17T06:03:29.151Z,25.81
2022-08-17T06:06:21.614Z,25.85
2022-08-17T06:09:01.191Z,25.91
2022-08-17T06:11:47.157Z,26.04
2022-08-17T06:14:42.636Z,26.05
2022-08-17T06:17:15.741Z,26.35
2022-08-17T06:19:54.501Z,26.48
2022-08-17T06:22:27.317Z,26.04
2022-08-17T06:25:02.470Z,26.18
2022-08-17T06:27:46.057Z,26.53
2022-08-17T06:30:59.337Z,26.72
2022-08-17T06:33:34.364Z,26.92
2022-08-17T06:36:29.473Z,26.95
2022-08-17T06:39:12.487Z,27.17
2022-08-17T06:41:46.201Z,27.37
2022-08-17T06:44:50.279Z,27.39
2022-08-17T06:47:56.110Z,27.38
2022-08-17T06:50:31.168Z,27.71
2022-08-17T06:53:31.713Z,27.59
2022-08-17T06:56:05.416Z,28.02
2022-08-17T06:58:35.773Z,28.03
2022-08-17T07:01:15.427Z,28.01
2022-08-17T07:03:55.508Z,27.84
2022-08-17T07:06:53.289Z,27.99
2022-08-17T07:09:29.360Z,27.71
2022-08-17T07:12:05.801Z,27.40
2022-08-17T07:14:37.880Z,27.33
2022-08-17T07:17:13.546Z,27.70
2022-08-17T07:19:45.577Z,27.88
2022-08-17T07:22:30.483Z,28.19
2022-08-17T07:25:20.885Z,28.40
2022-08-17T07:27:54.309Z,28.27
2022-08-17T07:30:31.782Z,28.64
2022-08-17T07:33:20.397Z,28.58
2022-08-17T07:35:50.074Z,28.75
2022-08-17T07:38:26.808Z,28.64
2022-08-17T07:40:57.895Z,28.71
2022-08-17T07:43:34.737Z,29.00
2022-08-17T07:46:35.869Z,29.19
2022-08-17T07:49:05.042Z,29.26
2022-08-17T07:51:37.876Z,29.09
2022-08-17T07:54:22.327Z,29.15
2022-08-17T07:56:51.427Z,29.55
2022-08-17T07:59:26.354Z,29.66
2022-08-17T08:02:03.633Z,29.51
2022-08-17T08:05:06.512Z,29.59
2022-08-17T08:07:42.605Z,29.88
2022-08-17T08:10:29.921Z,30.03
2022-08-17T08:13:14.222Z,30.11
2022-08-17T08:15:53.507Z,30.25
2022-08-17T08:18:53.537Z,30.22
2022-08-17T08:21:47.915Z,30.19
2022-08-17T08:24:31.339Z,30.11
2022-08-17T08:27:12.495Z,29.99
2022-08-17T08:30:10.195Z,29.59
2022-08-17T08:32:42.851Z,29.69
2022-08-17T08:35:26.686Z,29.97
2022-08-17T08:38:01.013Z,30.21
2022-08-17T08:40:40.397Z,30.43
2022-08-17T08:43:40.576Z,30.45
2022-08-17T08:46:15.695Z,30.81
2022-08-17T08:48:57.948Z,30.78
2022-08-17T08:51:41.472Z,30.67
2022-08-17T08:54:39.453Z,30.90
2022-08-17T08:57:33.720Z,30.82
2022-08-17T09:00:16.251Z,31.01
2022-08-17T09:03:05.385Z,31.09
2022-08-17T09:06:37.439Z,31.42
2022-08-17T09:09:21.824Z,31.68
2022-08-17T09:12:08.438Z,31.18
2022-08-17T09:14:47.330Z,31.57
2022-08-17T09:17:18.735Z,31.70
2022-08-17T09:20:06.007Z,32.13
2022-08-17T09:22:41.513Z,32.48
2022-08-17T09:25:14.767Z,32.45
2022-08-17T09:28:03.941Z,32.76
2022-08-17T09:30:46.674Z,32.58
2022-08-17T09:33:22.894Z,32.72
2022-08-17T09:36:02.423Z,33.14
2022-08-17T09:38:44.360Z,33.07
2022-08-17T09:41:49.029Z,33.65
2022-08-17T09:44:36.320Z,34.28
2022-08-17T09:47:14.613Z,34.71
2022-08-17T09:49:49.727Z,35.30
2022-08-17T09:52:29.418Z,35.38
2022-08-17T09:55:00.049Z,35.24
2022-08-17T09:57:59.501Z,35.40
2022-08-17T10:00:36.063Z,35.93
2022-08-17T10:03:21.442Z,36.15
2022-08-17T10:05:56.795Z,36.66
2022-08-17T10:08:37.435Z,36.56
2022-08-17T10:11:08.459Z,37.62
2022-08-17T10:13:53.156Z,38.55
2022-08-17T10:16:30.645Z,37.71
2022-08-17T10:19:28.385Z,38.03
2022-08-17T10:22:35.430Z,37.33
2022-08-17T10:25:33.292Z,36.86
2022-08-17T10:28:20.008Z,36.29
2022-08-17T10:31:16.634Z,37.09
2022-08-17T10:34:10.884Z,37.88
2022-08-17T10:36:47.444Z,36.78
2022-08-17T10:39:19.469Z,37.84
2022-08-17T10:41:50.885Z,37.70
2022-08-17T10:44:41.082Z,37.61
2022-08-17T10:47:11.750Z,38.32
2022-08-17T10:49:54.457Z,37.92
2022-08-17T10:52:27.827Z,38.03
2022-08-17T10:54:56.747Z,38.77
2022-08-17T10:57:32.259Z,37.87
2022-08-17T11:00:11.096Z,37.84
2022-08-17T11:02:47.947Z,38.03
2022-08-17T11:05:28.617Z,37.77
2022-08-17T11:08:22.826Z,37.83
2022-08-17T11:11:12.399Z,37.58
2022-08-17T11:13:52.803Z,38.04
2022-08-17T11:16:47.913Z,38.22
2022-08-17T11:19:51.650Z,37.17
2022-08-17T11:22:44.701Z,37.69
2022-08-17T11:25:17.204Z,37.93
2022-08-17T11:27:53.617Z,37.71
2022-08-17T11:30:49.312Z,36.62
2022-08-17T11:33:29.787Z,36.55
2022-08-17T11:36:04.177Z,36.10
2022-08-17T11:39:04.504Z,36.47
2022-08-17T11:41:53.782Z,36.74
2022-08-17T11:44:46.793Z,36.91
2022-08-17T11:47:53.033Z,37.05
2022-08-17T11:51:12.517Z,36.33
2022-08-17T11:53:40.009Z,35.75
2022-08-17T11:56:49.315Z,35.82
2022-08-17T11:59:42.044Z,36.10
2022-08-17T12:02:32.646Z,35.77
2022-08-17T12:05:21.092Z,36.07
2022-08-17T12:08:21.751Z,35.67
2022-08-17T12:11:03.484Z,36.02
2022-08-17T12:13:39.970Z,35.83
2022-08-17T12:16:10.017Z,36.32
2022-08-17T12:18:39.796Z,35.82
2022-08-17T12:21:38.133Z,36.09
2022-08-17T12:24:33.360Z,36.99
2022-08-17T12:27:04.650Z,37.03
2022-08-17T12:29:35.951Z,37.17
2022-08-17T12:32:08.409Z,37.15
2022-08-17T12:34:40.036Z,37.77
2022-08-17T12:37:16.469Z,38.18
2022-08-17T12:40:03.961Z,37.65
2022-08-17T12:42:37.401Z,37.00
2022-08-17T12:45:26.119Z,37.72
2022-08-17T12:48:10.168Z,37.67
2022-08-17T12:50:40.619Z,37.73
2022-08-17T12:53:31.047Z,37.53
2022-08-17T12:56:00.825Z,37.59
2022-08-17T12:58:32.419Z,37.67
2022-08-17T13:01:11.798Z,38.40
2022-08-17T13:03:52.735Z,39.89
2022-08-17T13:06:33.149Z,39.44
2022-08-17T13:09:36.100Z,38.58
2022-08-17T13:12:08.970Z,38.80
2022-08-17T13:14:36.673Z,38.64
2022-08-17T13:17:09.865Z,39.36
2022-08-17T13:19:49.906Z,39.41
2022-08-17T13:22:22.400Z,39.86
2022-08-17T13:24:56.449Z,41.41
2022-08-17T13:27:27.641Z,42.87
2022-08-17T13:29:59.905Z,43.27
2022-08-17T13:32:31.307Z,41.74
2022-08-17T13:35:14.139Z,41.62
2022-08-17T13:38:06.546Z,42.66
2022-08-17T13:40:38.970Z,44.68
2022-08-17T13:43:06.621Z,46.09
2022-08-17T13:45:40.246Z,44.99
2022-08-17T13:48:12.498Z,43.85
2022-08-17T13:50:49.411Z,42.68
2022-08-17T13:53:21.673Z,41.64
2022-08-17T13:55:55.536Z,40.68
2022-08-17T13:58:27.436Z,40.23
2022-08-17T14:00:56.333Z,40.66
2022-08-17T14:03:24.843Z,39.90
2022-08-17T14:05:52.845Z,38.16
2022-08-17T14:08:20.912Z,37.41
2022-08-17T14:10:58.715Z,36.89
2022-08-17T14:13:26.378Z,36.96
2022-08-17T14:15:56.708Z,36.89
2022-08-17T14:18:35.679Z,36.74
2022-08-17T14:21:12.786Z,36.87
2022-08-17T14:23:40.916Z,36.47
2022-08-17T14:26:11.662Z,36.53
2022-08-17T14:28:45.914Z,36.24
2022-08-17T14:31:24.181Z,35.68
2022-08-17T14:33:52.276Z,35.70
2022-08-17T14:36:19.892Z,35.57
2022-08-17T14:38:47.913Z,35.34
2022-08-17T14:41:20.053Z,34.92
2022-08-17T14:43:52.929Z,34.56
2022-08-17T14:46:20.520Z,34.37
2022-08-17T14:48:52.731Z,33.85
2022-08-17T14:51:23.841Z,33.71
2022-08-17T14:53:52.115Z,34.08
2022-08-17T14:56:19.716Z,35.28
2022-08-17T14:58:47.189Z,35.90
2022-08-17T15:01:15.198Z,36.15
2022-08-17T15:03:43.376Z,34.91
2022-08-17T15:06:14.751Z,35.53
2022-08-17T15:08:44.408Z,36.04
2022-08-17T15:11:14.441Z,36.40
2022-08-17T15:13:52.729Z,38.09
2022-08-17T15:16:20.783Z,39.60
2022-08-17T15:18:49.123Z,39.58
2022-08-17T15:21:18.198Z,39.23
2022-08-17T15:23:46.278Z,37.77
2022-08-17T15:26:14.763Z,38.32
2022-08-17T15:28:42.770Z,40.12
2022-08-17T15:31:10.213Z,42.02
2022-08-17T15:33:38.696Z,42.67
2022-08-17T15:36:07.828Z,42.89
2022-08-17T15:38:39.326Z,42.54
2022-08-17T15:41:09.462Z,42.05
2022-08-17T15:43:37.719Z,40.50
2022-08-17T15:46:12.087Z,39.68
2022-08-17T15:48:42.684Z,37.54
2022-08-17T15:51:21.343Z,36.68
2022-08-17T15:53:59.530Z,35.98
2022-08-17T15:56:32.749Z,35.54
2022-08-17T15:59:00.592Z,35.48
2022-08-17T16:02:21.538Z,35.38
2022-08-17T16:04:27.236Z,34.89
2022-08-17T16:06:59.704Z,34.33
2022-08-17T16:09:28.155Z,34.38
2022-08-17T16:11:56.421Z,33.95
2022-08-17T16:14:32.464Z,33.52
2022-08-17T16:17:04.599Z,32.98
2022-08-17T16:19:34.417Z,33.08
2022-08-17T16:22:02.821Z,33.03
2022-08-17T16:24:31.324Z,32.85
2022-08-17T16:26:58.990Z,32.44
2022-08-17T16:29:27.749Z,32.59
2022-08-17T16:31:56.209Z,32.60
2022-08-17T16:34:23.898Z,32.43
2022-08-17T16:36:55.953Z,32.57
2022-08-17T16:39:33.078Z,33.07
2022-08-17T16:42:02.694Z,33.43
2022-08-17T16:44:32.176Z,33.49
2022-08-17T16:47:01.367Z,33.49
2022-08-17T16:49:37.046Z,33.37
2022-08-17T16:52:10.367Z,33.18
2022-08-17T16:54:44.725Z,33.06
2022-08-17T16:57:13.719Z,32.85
2022-08-17T16:59:44.896Z,32.81
2022-08-17T17:02:24.889Z,32.54
2022-08-17T17:05:22.785Z,32.43
2022-08-17T17:07:58.107Z,32.18
2022-08-17T17:10:44.853Z,32.10
2022-08-17T17:13:43.353Z,31.97
2022-08-17T17:16:26.344Z,31.89
2022-08-17T17:19:04.494Z,31.67
2022-08-17T17:22:18.359Z,31.27
2022-08-17T17:25:07.354Z,31.05
2022-08-17T17:27:34.927Z,31.05
2022-08-17T17:30:15.382Z,30.95
2022-08-17T17:32:49.770Z,30.93
2022-08-17T17:35:21.815Z,30.74
2022-08-17T17:37:52.164Z,30.66
2022-08-17T17:40:37.262Z,30.44
2022-08-17T17:43:34.763Z,30.14
2022-08-17T17:46:27.815Z,30.10
2022-08-17T17:48:53.774Z,29.82
2022-08-17T17:52:07.197Z,29.85
2022-08-17T17:54:36.263Z,29.63
2022-08-17T17:57:46.943Z,29.52
2022-08-17T18:00:23.586Z,29.19
2022-08-17T18:03:18.277Z,28.20
2022-08-17T18:05:57.406Z,27.32
2022-08-17T18:08:32.232Z,26.57
2022-08-17T18:11:14.148Z,26.07
2022-08-17T18:14:23.596Z,24.98
2022-08-17T18:16:56.954Z,24.47
2022-08-17T18:19:28.193Z,24.14
2022-08-17T18:22:02.446Z,24.01
2022-08-17T18:24:37.884Z,24.05
2022-08-17T18:27:25.239Z,24.15
2022-08-17T18:29:56.098Z,24.16
2022-08-17T18:32:32.481Z,24.27
2022-08-17T18:35:08.651Z,23.89
2022-08-17T18:37:51.538Z,23.94
2022-08-17T18:40:19.846Z,23.87
2022-08-17T18:42:50.644Z,23.97
2022-08-17T18:45:46.800Z,24.01
2022-08-17T18:48:32.975Z,23.97
2022-08-17T18:51:26.310Z,23.91
2022-08-17T18:54:23.520Z,24.31
2022-08-17T18:56:53.620Z,24.55
2022-08-17T18:59:41.199Z,24.86
2022-08-17T19:05:31.763Z,24.45
2022-08-17T19:08:14.658Z,24.32
2022-08-17T19:10:47.154Z,24.30
2022-08-17T19:13:24.996Z,24.63
2022-08-17T19:16:17.790Z,24.28
2022-08-17T19:19:04.797Z,24.10
2022-08-17T19:21:37.972Z,24.27
2022-08-17T19:24:19.481Z,24.59
2022-08-17T19:26:58.743Z,24.61
2022-08-17T19:29:41.072Z,24.56
2022-08-17T19:32:11.164Z,24.46
2022-08-17T19:34:39.689Z,24.54
2022-08-17T19:37:33.239Z,24.74
2022-08-17T19:40:09.208Z,24.90
2022-08-17T19:43:01.417Z,24.75
2022-08-17T19:45:35.043Z,24.75
2022-08-17T19:48:35.539Z,24.56
2022-08-17T19:51:10.576Z,24.69
2022-08-17T19:54:06.738Z,24.67
2022-08-17T19:56:39.308Z,24.72
2022-08-17T19:59:46.545Z,24.64
2022-08-17T20:02:39.134Z,24.81
2022-08-17T20:05:15.417Z,24.82
2022-08-17T20:07:52.125Z,24.90
2022-08-17T20:10:33.137Z,24.69
2022-08-17T20:13:08.558Z,24.82
2022-08-17T20:15:40.772Z,24.90
2022-08-17T20:18:30.651Z,24.90
2022-08-17T20:21:01.827Z,24.68
2022-08-17T20:23:50.590Z,24.61
2022-08-17T20:26:28.398Z,24.63
2022-08-17T20:29:14.580Z,24.45
2022-08-17T20:31:51.171Z,24.24
2022-08-17T20:34:34.923Z,24.09
2022-08-17T20:37:25.191Z,24.24
2022-08-17T20:39:53.314Z,24.40
2022-08-17T20:42:20.848Z,24.42
2022-08-17T20:44:51.958Z,24.53
2022-08-17T20:47:27.326Z,24.55
2022-08-17T20:50:10.632Z,24.61
2022-08-17T20:52:51.845Z,24.48
2022-08-17T20:55:35.766Z,24.36
2022-08-17T20:58:23.127Z,24.26
2022-08-17T21:00:56.629Z,24.24
2022-08-17T21:03:26.993Z,24.24
2022-08-17T21:05:59.913Z,24.35
2022-08-17T21:08:34.220Z,24.38
2022-08-17T21:11:56.766Z,24.29
2022-08-17T21:14:31.167Z,24.16
2022-08-17T21:17:05.850Z,23.93
2022-08-17T21:20:17.148Z,24.16
2022-08-17T21:23:25.529Z,24.02
2022-08-17T21:26:30.392Z,23.69
2022-08-17T21:29:29.759Z,23.94
2022-08-17T21:32:01.868Z,24.13
2022-08-17T21:34:31.412Z,24.22
2022-08-17T21:37:38.321Z,24.13
2022-08-17T21:40:18.585Z,24.06
2022-08-17T21:42:52.793Z,24.02
2022-08-17T21:45:28.351Z,23.92
2022-08-17T21:48:16.313Z,24.09
2022-08-17T21:51:05.867Z,24.28
2022-08-17T21:53:42.664Z,24.29
2022-08-17T21:56:13.075Z,24.40
2022-08-17T21:58:48.450Z,24.46
2022-08-17T22:01:22.167Z,24.26
2022-08-17T22:03:58.217Z,24.22
2022-08-17T22:06:39.074Z,24.17
2022-08-17T22:09:14.942Z,24.40
2022-08-17T22:12:01.369Z,24.59
2022-08-17T22:14:52.867Z,24.68
2022-08-17T22:17:24.259Z,24.75
2022-08-17T22:20:03.217Z,24.87
2022-08-17T22:22:56.153Z,24.78
2022-08-17T22:25:26.906Z,24.59
2022-08-17T22:28:01.129Z,24.68
2022-08-17T22:30:41.984Z,24.76
2022-08-17T22:33:33.562Z,24.91
2022-08-17T22:36:33.648Z,24.98
2022-08-17T22:39:26.317Z,25.02
2022-08-17T22:42:00.240Z,24.99
2022-08-17T22:44:31.721Z,25.00
2022-08-17T22:47:02.107Z,25.03
2022-08-17T22:49:54.264Z,24.96
2022-08-17T22:53:02.064Z,24.96
2022-08-17T22:55:52.333Z,25.00
2022-08-17T22:58:42.467Z,24.76
2022-08-17T23:01:29.869Z,24.85
2022-08-17T23:04:04.130Z,24.90
2022-08-17T23:06:36.473Z,24.92
2022-08-17T23:09:06.385Z,24.90
2022-08-17T23:11:48.999Z,24.78
2022-08-17T23:14:20.616Z,24.78
2022-08-17T23:16:53.133Z,24.89
2022-08-17T23:19:21.913Z,24.85
2022-08-17T23:21:52.735Z,24.86
2022-08-17T23:24:25.516Z,24.77
2022-08-17T23:26:57.132Z,24.75
2022-08-17T23:29:29.323Z,24.75
2022-08-17T23:31:59.962Z,24.67
2022-08-17T23:34:28.797Z,24.65
2022-08-17T23:36:56.413Z,24.59
2022-08-17T23:39:28.203Z,24.54
2022-08-17T23:42:01.453Z,24.59
2022-08-17T23:44:31.020Z,24.63
2022-08-17T23:46:58.521Z,24.70
2022-08-17T23:49:26.118Z,24.75
2022-08-17T23:51:55.139Z,24.78
2022-08-17T23:54:33.687Z,24.81
2022-08-17T23:57:02.426Z,24.76
2022-08-17T23:59:29.996Z,24.76
